createdAt,value
2019-04-05T00:05:22.450Z,59.60
2019-04-05T00:12:07.375Z,59.20
2019-04-05T00:18:52.256Z,59.30
2019-04-05T00:25:37.246Z,58.40
2019-04-05T00:32:22.223Z,58.90
2019-04-05T00:39:08.715Z,58.80
2019-04-05T00:45:53.631Z,58.70
2019-04-05T00:52:38.495Z,58.40
2019-04-05T00:59:23.411Z,58.30
2019-04-05T01:06:08.391Z,58.30
2019-04-05T01:12:54.798Z,58.40
2019-04-05T01:19:41.417Z,58.40
2019-04-05T01:26:26.731Z,58.90
2019-04-05T01:33:11.930Z,60.10
2019-04-05T01:39:57.315Z,60.50
2019-04-05T01:46:42.714Z,60.40
2019-04-05T01:53:27.922Z,60.40
2019-04-05T02:00:13.674Z,60.40
2019-04-05T02:06:58.774Z,60.20
2019-04-05T02:13:43.710Z,60.40
2019-04-05T02:20:28.705Z,60.70
2019-04-05T02:27:13.894Z,61.20
2019-04-05T02:33:59.081Z,61.60
2019-04-05T02:40:45.011Z,61.50
2019-04-05T02:47:30.472Z,61.70
2019-04-05T02:54:17.504Z,61.70
2019-04-05T03:01:02.971Z,62.30
2019-04-05T03:07:48.140Z,62.70
2019-04-05T03:14:33.422Z,62.40
2019-04-05T03:21:21.006Z,62.50
2019-04-05T03:28:06.312Z,62.90
2019-04-05T03:34:51.743Z,62.80
2019-04-05T03:41:37.791Z,63.30
2019-04-05T03:48:22.956Z,63.40
2019-04-05T03:55:08.055Z,64.20
2019-04-05T04:01:53.058Z,64.80
2019-04-05T04:08:38.228Z,65.20
2019-04-05T04:15:24.824Z,65.50
2019-04-05T04:22:15.721Z,66.70
2019-04-05T04:29:00.647Z,65.90
2019-04-05T04:35:45.638Z,65.70
2019-04-05T04:42:30.947Z,65.90
2019-04-05T04:49:16.343Z,66.00
2019-04-05T04:56:01.631Z,65.30
2019-04-05T05:02:47.094Z,65.60
2019-04-05T05:09:33.519Z,65.30
2019-04-05T05:16:18.502Z,65.30
2019-04-05T05:23:03.578Z,64.60
2019-04-05T05:29:49.066Z,64.40
2019-04-05T05:36:34.175Z,63.10
2019-04-05T05:43:20.126Z,62.90
2019-04-05T05:50:07.353Z,62.40
2019-04-05T05:56:53.294Z,62.00
2019-04-05T06:03:38.620Z,61.40
2019-04-05T06:10:23.892Z,60.70
2019-04-05T06:17:09.076Z,60.30
2019-04-05T06:23:54.000Z,60.00
2019-04-05T06:30:39.286Z,58.70
2019-04-05T06:37:24.138Z,56.20
2019-04-05T06:44:08.991Z,55.40
2019-04-05T06:50:54.389Z,54.60
2019-04-05T06:57:39.456Z,55.60
2019-04-05T07:04:25.415Z,55.10
2019-04-05T07:11:10.267Z,55.80
2019-04-05T07:17:55.263Z,55.40
2019-04-05T07:24:42.161Z,56.00
2019-04-05T07:31:27.149Z,55.80
2019-04-05T07:38:12.027Z,55.80
2019-04-05T07:44:56.962Z,55.20
2019-04-05T07:51:42.787Z,55.20
2019-04-05T07:58:27.642Z,54.90
2019-04-05T08:05:15.000Z,52.20
2019-04-05T08:12:01.159Z,50.80
2019-04-05T08:18:57.209Z,51.00
2019-04-05T08:25:32.640Z,52.90
2019-04-05T08:32:17.495Z,52.50
2019-04-05T08:39:02.598Z,53.10
2019-04-05T08:45:48.848Z,53.00
2019-04-05T08:52:34.794Z,51.90
2019-04-05T08:59:19.715Z,52.30
2019-04-05T09:06:04.913Z,51.80
2019-04-05T09:12:49.848Z,50.80
2019-04-05T09:19:34.702Z,51.10
2019-04-05T09:26:21.103Z,48.40
2019-04-05T09:33:06.343Z,45.00
2019-04-05T09:39:51.471Z,42.20
2019-04-05T09:46:45.936Z,39.60
2019-04-05T09:53:22.967Z,35.10
2019-04-05T10:00:12.261Z,32.10
2019-04-05T10:06:57.472Z,29.60
2019-04-05T10:13:42.409Z,29.00
2019-04-05T10:20:27.275Z,30.60
2019-04-05T10:27:12.222Z,31.20
2019-04-05T10:33:57.176Z,33.10
2019-04-05T10:40:42.045Z,33.20
2019-04-05T10:47:26.911Z,31.00
2019-04-05T10:54:11.876Z,32.00
2019-04-05T11:00:57.068Z,33.40
2019-04-05T11:07:42.120Z,35.30
2019-04-05T11:14:29.461Z,34.90
2019-04-05T11:21:16.201Z,36.90
2019-04-05T11:28:03.360Z,36.40
2019-04-05T11:34:48.536Z,35.20
2019-04-05T11:41:35.365Z,35.60
2019-04-05T11:48:21.444Z,36.10
2019-04-05T11:55:08.319Z,35.60
2019-04-05T12:02:06.846Z,37.90
2019-04-05T12:08:52.848Z,35.80
2019-04-05T12:15:37.711Z,38.00
2019-04-05T12:22:22.576Z,41.50
2019-04-05T12:29:07.440Z,41.10
2019-04-05T12:35:56.167Z,44.30
2019-04-05T12:42:42.600Z,41.10
2019-04-05T12:49:25.441Z,41.80
2019-04-05T12:56:10.439Z,41.80
2019-04-05T13:02:57.050Z,41.60
2019-04-05T13:09:45.369Z,44.30
2019-04-05T13:16:28.598Z,46.50
2019-04-05T13:23:13.535Z,47.00
2019-04-05T13:29:58.685Z,47.30
2019-04-05T13:36:43.624Z,48.60
2019-04-05T13:43:29.739Z,50.10
2019-04-05T13:50:15.467Z,51.10
2019-04-05T13:57:00.402Z,50.80
2019-04-05T14:03:45.432Z,50.50
2019-04-05T14:10:30.375Z,50.60
2019-04-05T14:17:16.402Z,47.70
2019-04-05T14:24:04.223Z,46.90
2019-04-05T14:30:50.333Z,47.20
2019-04-05T14:37:35.567Z,47.20
2019-04-05T14:44:21.887Z,47.00
2019-04-05T14:51:06.992Z,47.60
2019-04-05T14:57:51.943Z,47.50
2019-04-05T15:04:36.811Z,46.90
2019-04-05T15:11:21.806Z,47.80
2019-04-05T15:18:06.739Z,48.20
2019-04-05T15:24:51.614Z,48.40
2019-04-05T15:31:36.547Z,48.10
2019-04-05T15:38:21.475Z,47.30
2019-04-05T15:45:08.351Z,47.70
2019-04-05T15:51:55.082Z,48.80
2019-04-05T15:58:40.203Z,50.40
2019-04-05T16:05:25.258Z,49.60
2019-04-05T16:12:10.306Z,49.00
2019-04-05T16:18:58.233Z,48.90
2019-04-05T16:25:43.483Z,49.20
2019-04-05T16:32:29.408Z,49.60
2019-04-05T16:39:16.102Z,49.40
2019-04-05T16:46:01.085Z,51.40
2019-04-05T16:52:46.093Z,52.00
2019-04-05T16:59:31.024Z,52.30
2019-04-05T17:06:16.095Z,53.40
2019-04-05T17:13:01.128Z,55.30
2019-04-05T17:19:46.141Z,56.10
2019-04-05T17:26:31.172Z,56.20
2019-04-05T17:33:16.109Z,56.30
2019-04-05T17:40:01.206Z,56.60
2019-04-05T17:46:46.239Z,57.20
2019-04-05T17:53:31.102Z,57.20
2019-04-05T18:00:17.816Z,57.50
2019-04-05T18:07:03.147Z,56.80
2019-04-05T18:13:48.342Z,56.50
2019-04-05T18:20:33.430Z,56.60
2019-04-05T18:27:18.367Z,57.10
2019-04-05T18:34:03.826Z,57.20
2019-04-05T18:40:48.818Z,57.30
2019-04-05T18:47:33.824Z,57.20
2019-04-05T18:54:18.678Z,57.50
2019-04-05T19:01:03.743Z,57.40
2019-04-05T19:07:48.738Z,57.60
2019-04-05T19:14:33.667Z,58.00
2019-04-05T19:21:18.960Z,58.00
2019-04-05T19:28:04.004Z,57.90
2019-04-05T19:55:10.008Z,59.70
2019-04-05T20:01:55.198Z,59.20
2019-04-05T20:08:40.124Z,59.10
2019-04-05T20:15:24.982Z,59.00
2019-04-05T20:22:09.829Z,59.60
2019-04-05T20:28:54.701Z,60.10
2019-04-05T20:35:39.631Z,60.60
2019-04-05T20:42:24.543Z,60.40
2019-04-05T20:49:09.504Z,60.60
2019-04-05T20:55:54.435Z,61.00
2019-04-05T21:02:39.372Z,61.60
2019-04-05T21:09:24.298Z,62.50
2019-04-05T21:16:09.300Z,63.40
2019-04-05T21:22:55.126Z,63.50
2019-04-05T21:29:40.050Z,64.20
2019-04-05T21:36:24.916Z,64.80
2019-04-05T21:43:10.395Z,65.70
2019-04-05T21:49:55.835Z,66.10
2019-04-05T21:56:40.773Z,66.90
2019-04-05T22:03:26.010Z,67.50
2019-04-05T22:10:11.426Z,69.30
2019-04-05T22:16:57.077Z,69.60
2019-04-05T22:23:42.083Z,73.10
2019-04-05T22:30:26.943Z,73.50
2019-04-05T22:37:12.674Z,74.70
2019-04-05T22:43:57.705Z,75.40
2019-04-05T22:50:43.415Z,75.10
2019-04-05T22:57:28.520Z,76.50
2019-04-05T23:04:13.558Z,78.80
2019-04-05T23:10:58.508Z,78.80
2019-04-05T23:17:43.362Z,79.30
2019-04-05T23:24:28.733Z,79.70
2019-04-05T23:31:14.711Z,79.80
2019-04-05T23:37:59.650Z,79.90
2019-04-05T23:44:44.827Z,79.90
2019-04-05T23:51:30.655Z,81.60
2019-04-05T23:58:15.678Z,82.70
